createdAt,value
2017-09-17T04:22:52.379Z,2
2017-09-17T04:29:52.791Z,5
2017-09-17T04:32:52.975Z,8
2017-09-17T04:34:53.142Z,10
2017-09-17T04:36:23.238Z,13
2017-09-17T04:37:53.359Z,15
2017-09-17T04:38:53.432Z,17
2017-09-17T04:39:23.430Z,20
2017-09-17T04:40:23.513Z,22
2017-09-17T04:40:53.536Z,25
2017-09-17T04:41:53.607Z,28
2017-09-17T04:42:23.576Z,30
2017-09-17T04:42:53.609Z,32
2017-09-17T04:43:23.644Z,35
2017-09-17T04:43:53.745Z,40
2017-09-17T04:44:23.741Z,43
2017-09-17T04:44:53.731Z,45
2017-09-17T04:45:23.841Z,50
2017-09-17T04:45:53.794Z,55
2017-09-17T04:46:23.832Z,60
2017-09-17T04:46:53.993Z,65
2017-09-17T04:47:23.895Z,70
2017-09-17T04:47:53.921Z,73
2017-09-17T04:48:23.970Z,77
2017-09-17T04:48:54.027Z,80
2017-09-17T04:49:24.034Z,85
2017-09-17T04:49:54.158Z,88
2017-09-17T04:50:24.156Z,92
2017-09-17T04:50:54.134Z,98
2017-09-17T04:51:24.188Z,105
2017-09-17T04:51:54.205Z,110
2017-09-17T04:52:24.245Z,118
2017-09-17T04:52:54.290Z,125
2017-09-17T04:53:24.330Z,135
2017-09-17T04:53:54.335Z,145
2017-09-17T04:54:24.392Z,155
2017-09-17T04:54:54.384Z,163
2017-09-17T04:55:24.491Z,172
2017-09-17T04:55:54.526Z,182
2017-09-17T04:56:24.532Z,193
2017-09-17T04:56:54.526Z,200
2017-09-17T04:57:24.588Z,210
2017-09-17T04:57:54.625Z,220
2017-09-17T04:58:24.649Z,233
2017-09-17T04:58:54.703Z,242
2017-09-17T04:59:24.748Z,255
2017-09-17T04:59:54.762Z,268
2017-09-17T05:00:24.827Z,280
2017-09-17T05:00:54.815Z,293
2017-09-17T05:01:24.875Z,305
2017-09-17T05:01:54.964Z,317
2017-09-17T05:02:24.947Z,330
2017-09-17T05:02:54.966Z,345
2017-09-17T05:03:24.999Z,362
2017-09-17T05:03:55.004Z,377
2017-09-17T05:04:25.073Z,395
2017-09-17T05:04:55.080Z,412
2017-09-17T05:05:25.174Z,433
2017-09-17T05:05:55.134Z,452
2017-09-17T05:06:25.232Z,473
2017-09-17T05:06:55.229Z,493
2017-09-17T05:07:25.195Z,515
2017-09-17T05:07:55.294Z,540
2017-09-17T05:08:25.317Z,565
2017-09-17T05:08:55.348Z,592
2017-09-17T05:09:25.378Z,617
2017-09-17T05:09:55.398Z,643
2017-09-17T05:10:25.487Z,667
2017-09-17T05:10:55.457Z,692
2017-09-17T05:11:25.513Z,715
2017-09-17T05:11:55.523Z,737
2017-09-17T05:12:25.536Z,760
2017-09-17T05:12:55.584Z,780
2017-09-17T05:13:25.635Z,797
2017-09-17T05:13:55.622Z,808
2017-09-17T05:14:25.641Z,823
2017-09-17T05:14:55.728Z,842
2017-09-17T05:15:25.733Z,865
2017-09-17T05:15:55.739Z,892
2017-09-17T05:16:25.773Z,925
2017-09-17T05:16:55.827Z,955
2017-09-17T05:17:25.914Z,983
2017-09-17T05:17:55.928Z,1012
2017-09-17T05:18:25.946Z,1042
2017-09-17T05:18:55.937Z,1072
2017-09-17T05:19:25.980Z,1105
2017-09-17T05:19:55.997Z,1133
2017-09-17T05:20:26.105Z,1163
2017-09-17T05:20:56.056Z,1193
2017-09-17T05:21:26.109Z,1223
2017-09-17T05:21:56.125Z,1252
2017-09-17T05:22:26.160Z,1280
2017-09-17T05:22:56.616Z,1303
2017-09-17T05:23:26.596Z,1328
2017-09-17T05:23:56.606Z,1352
2017-09-17T05:24:26.643Z,1378
2017-09-17T05:24:56.691Z,1400
2017-09-17T05:25:26.775Z,1423
2017-09-17T05:25:56.751Z,1440
2017-09-17T05:26:26.790Z,1460
2017-09-17T05:26:56.803Z,1480
2017-09-17T05:27:26.891Z,1495
2017-09-17T05:27:56.879Z,1510
2017-09-17T05:28:26.953Z,1522
2017-09-17T05:28:57.027Z,1538
2017-09-17T05:29:26.964Z,1550
2017-09-17T05:29:57.060Z,1562
2017-09-17T05:30:27.115Z,1575
2017-09-17T05:30:57.096Z,1588
2017-09-17T05:31:27.088Z,1600
2017-09-17T05:31:57.150Z,1615
2017-09-17T05:32:27.186Z,1635
2017-09-17T05:32:57.187Z,1652
2017-09-17T05:33:27.216Z,1675
2017-09-17T05:33:57.264Z,1695
2017-09-17T05:34:27.326Z,1715
2017-09-17T05:34:57.397Z,1740
2017-09-17T05:35:27.656Z,1760
2017-09-17T05:35:57.422Z,1787
2017-09-17T05:36:27.476Z,1817
2017-09-17T05:36:57.512Z,1847
2017-09-17T05:37:27.536Z,1880
2017-09-17T05:37:57.569Z,1915
2017-09-17T05:38:27.591Z,1948
2017-09-17T05:38:57.636Z,1980
2017-09-17T05:39:27.671Z,2017
2017-09-17T05:39:57.695Z,2050
2017-09-17T05:40:27.723Z,2080
2017-09-17T05:40:57.777Z,2115
2017-09-17T05:41:27.774Z,2143
2017-09-17T05:41:57.825Z,2168
2017-09-17T05:42:27.839Z,2192
2017-09-17T05:42:57.891Z,2213
2017-09-17T05:43:27.886Z,2233
2017-09-17T05:43:57.942Z,2250
2017-09-17T05:44:27.972Z,2265
2017-09-17T05:44:58.005Z,2278
2017-09-17T05:45:28.069Z,2295
2017-09-17T05:45:58.098Z,2312
2017-09-17T05:46:28.127Z,2335
2017-09-17T05:46:58.191Z,2353
2017-09-17T05:47:28.134Z,2372
2017-09-17T05:47:58.234Z,2392
2017-09-17T05:48:28.266Z,2417
2017-09-17T05:48:58.252Z,2445
2017-09-17T05:49:28.321Z,2473
2017-09-17T05:49:58.318Z,2503
2017-09-17T05:50:28.418Z,2535
2017-09-17T05:50:58.442Z,2567
2017-09-17T05:51:28.413Z,2603
2017-09-17T05:51:58.421Z,2642
2017-09-17T05:52:28.477Z,2680
2017-09-17T05:52:58.544Z,2715
2017-09-17T05:53:28.511Z,2750
2017-09-17T05:53:58.557Z,2790
2017-09-17T05:54:28.588Z,2827
2017-09-17T05:54:58.626Z,2865
2017-09-17T05:55:28.720Z,2897
2017-09-17T05:55:58.724Z,2935
2017-09-17T05:56:28.716Z,2975
2017-09-17T05:56:58.752Z,3013
2017-09-17T05:57:28.772Z,3047
2017-09-17T05:57:58.830Z,3092
2017-09-17T05:58:28.844Z,3140
2017-09-17T05:58:58.866Z,3190
2017-09-17T05:59:28.895Z,3233
2017-09-17T05:59:58.929Z,3283
2017-09-17T06:00:29.030Z,3338
2017-09-17T06:00:59.008Z,3392
2017-09-17T06:01:29.038Z,3450
2017-09-17T06:01:59.064Z,3505
2017-09-17T06:02:29.090Z,3560
2017-09-17T06:02:59.144Z,3613
2017-09-17T06:03:29.170Z,3662
2017-09-17T06:03:59.267Z,3710
2017-09-17T06:04:29.296Z,3755
2017-09-17T06:04:59.280Z,3800
2017-09-17T06:05:29.367Z,3838
2017-09-17T06:05:59.377Z,3870
2017-09-17T06:06:29.368Z,3900
2017-09-17T06:06:59.444Z,3932
2017-09-17T06:07:29.446Z,3965
2017-09-17T06:07:59.471Z,3998
2017-09-17T06:08:29.511Z,4022
2017-09-17T06:08:59.528Z,4048
2017-09-17T06:09:29.566Z,4078
2017-09-17T06:09:59.596Z,4100
2017-09-17T06:10:29.730Z,4125
2017-09-17T06:10:59.710Z,4140
2017-09-17T06:11:29.690Z,4150
2017-09-17T06:11:59.744Z,4153
2017-09-17T06:12:29.739Z,4142
2017-09-17T06:12:59.804Z,4127
2017-09-17T06:13:29.827Z,4105
2017-09-17T06:13:59.832Z,4080
2017-09-17T06:14:29.862Z,4057
2017-09-17T06:14:59.961Z,4035
2017-09-17T06:15:30.469Z,4010
2017-09-17T06:15:59.971Z,3990
2017-09-17T06:16:30.012Z,3970
2017-09-17T06:17:00.035Z,3947
2017-09-17T06:17:30.119Z,3925
2017-09-17T06:18:00.114Z,3910
2017-09-17T06:18:30.134Z,3902
2017-09-17T06:19:00.185Z,3890
2017-09-17T06:19:30.273Z,3885
2017-09-17T06:20:00.303Z,3875
2017-09-17T06:21:00.741Z,3880
2017-09-17T06:21:30.390Z,3887
2017-09-17T06:22:00.698Z,3900
2017-09-17T06:22:30.457Z,3917
2017-09-17T06:23:00.770Z,3947
2017-09-17T06:23:30.529Z,3992
2017-09-17T06:24:00.706Z,4040
2017-09-17T06:24:30.580Z,4102
2017-09-17T06:25:00.791Z,4170
2017-09-17T06:25:30.634Z,4247
2017-09-17T06:26:00.702Z,4322
2017-09-17T06:26:30.685Z,4400
2017-09-17T06:27:00.677Z,4475
2017-09-17T06:27:30.753Z,4545
2017-09-17T06:28:00.864Z,4620
2017-09-17T06:28:30.863Z,4685
2017-09-17T06:29:00.841Z,4745
2017-09-17T06:29:30.906Z,4800
2017-09-17T06:30:00.894Z,4843
2017-09-17T06:30:30.904Z,4877
2017-09-17T06:31:01.122Z,4913
2017-09-17T06:31:31.003Z,4940
2017-09-17T06:32:01.063Z,4960
2017-09-17T06:32:31.056Z,4978
2017-09-17T06:33:01.059Z,4993
2017-09-17T06:33:31.153Z,5005
2017-09-17T06:34:01.182Z,5008
2017-09-17T06:35:01.235Z,5005
2017-09-17T06:35:31.314Z,4995
2017-09-17T06:36:01.323Z,4988
2017-09-17T06:36:31.318Z,4975
2017-09-17T06:37:01.399Z,4965
2017-09-17T06:37:31.348Z,4960
2017-09-17T06:38:01.383Z,4948
2017-09-17T06:38:31.453Z,4940
2017-09-17T06:39:01.519Z,4927
2017-09-17T06:39:31.701Z,4915
2017-09-17T06:40:01.514Z,4905
2017-09-17T06:40:31.599Z,4895
2017-09-17T06:41:01.764Z,4885
2017-09-17T06:41:31.660Z,4877
2017-09-17T06:42:01.648Z,4873
2017-09-17T06:43:31.743Z,4880
2017-09-17T06:44:01.802Z,4888
2017-09-17T06:44:31.824Z,4895
2017-09-17T06:45:01.969Z,4910
2017-09-17T06:45:31.878Z,4922
2017-09-17T06:46:01.994Z,4940
2017-09-17T06:46:31.932Z,4952
2017-09-17T06:47:02.021Z,4963
2017-09-17T06:47:31.991Z,4980
2017-09-17T06:48:02.029Z,4995
2017-09-17T06:48:32.066Z,5012
2017-09-17T06:49:02.155Z,5040
2017-09-17T06:49:32.114Z,5068
2017-09-17T06:50:02.145Z,5098
2017-09-17T06:50:32.172Z,5128
2017-09-17T06:51:02.298Z,5158
2017-09-17T06:51:32.314Z,5190
2017-09-17T06:52:02.327Z,5220
2017-09-17T06:52:32.296Z,5258
2017-09-17T06:53:02.344Z,5295
2017-09-17T06:53:32.441Z,5335
2017-09-17T06:54:02.434Z,5380
2017-09-17T06:54:32.437Z,5430
2017-09-17T06:55:02.489Z,5475
2017-09-17T06:55:32.508Z,5525
2017-09-17T06:56:02.597Z,5582
2017-09-17T06:56:32.561Z,5635
2017-09-17T06:57:02.626Z,5700
2017-09-17T06:57:32.620Z,5760
2017-09-17T06:58:02.655Z,5818
2017-09-17T06:58:32.701Z,5878
2017-09-17T06:59:02.735Z,5927
2017-09-17T06:59:32.753Z,5975
2017-09-17T07:00:02.840Z,6005
2017-09-17T07:00:32.814Z,6035
2017-09-17T07:01:03.385Z,6058
2017-09-17T07:01:32.880Z,6073
2017-09-17T07:02:02.908Z,6077
2017-09-17T07:02:32.993Z,6073
2017-09-17T07:03:02.968Z,6062
2017-09-17T07:03:32.993Z,6047
2017-09-17T07:04:03.025Z,6030
2017-09-17T07:04:33.065Z,6008
2017-09-17T07:05:03.127Z,5983
2017-09-17T07:05:33.138Z,5955
2017-09-17T07:06:03.235Z,5932
2017-09-17T07:06:33.259Z,5920
2017-09-17T07:09:03.368Z,6005
2017-09-17T07:09:33.408Z,6047
2017-09-17T07:10:03.455Z,6100
2017-09-17T07:10:33.518Z,6167
2017-09-17T07:11:03.648Z,6235
2017-09-17T07:11:33.549Z,6313
2017-09-17T07:12:03.584Z,6390
2017-09-17T07:12:33.620Z,6472
2017-09-17T07:13:03.646Z,6557
2017-09-17T07:13:33.678Z,6640
2017-09-17T07:14:03.725Z,6740
2017-09-17T07:14:33.702Z,6842
2017-09-17T07:15:03.918Z,6947
2017-09-17T07:15:33.811Z,7050
2017-09-17T07:16:04.367Z,7150
2017-09-17T07:16:33.888Z,7250
2017-09-17T07:17:03.860Z,7345
2017-09-17T07:17:33.941Z,7432
2017-09-17T07:18:04.015Z,7508
2017-09-17T07:18:34.034Z,7597
2017-09-17T07:19:04.159Z,7680
2017-09-17T07:19:34.066Z,7765
2017-09-17T07:20:04.093Z,7858
2017-09-17T07:20:34.149Z,7945
2017-09-17T07:21:04.255Z,8040
2017-09-17T07:21:34.246Z,8147
2017-09-17T07:22:04.257Z,8257
2017-09-17T07:22:34.274Z,8368
2017-09-17T07:23:04.308Z,8483
2017-09-17T07:23:34.343Z,8602
2017-09-17T07:24:04.337Z,8728
2017-09-17T07:24:34.438Z,8852
2017-09-17T07:25:04.431Z,8977
2017-09-17T07:25:34.464Z,9107
2017-09-17T07:26:04.531Z,9238
2017-09-17T07:26:34.563Z,9368
2017-09-17T07:27:04.511Z,9525
2017-09-17T07:27:34.614Z,9682
2017-09-17T07:28:04.608Z,9838
2017-09-17T07:28:34.649Z,10010
2017-09-17T07:29:04.643Z,10160
2017-09-17T07:29:34.705Z,10220
2017-09-17T07:30:04.763Z,10305
2017-09-17T07:30:34.726Z,10425
2017-09-17T07:31:04.876Z,10520
2017-09-17T07:31:34.820Z,10565
2017-09-17T07:32:04.832Z,10550
2017-09-17T07:32:34.859Z,10543
2017-09-17T07:33:04.924Z,10540
2017-09-17T07:33:34.947Z,10530
2017-09-17T07:34:04.984Z,10535
2017-09-17T07:34:34.996Z,10538
2017-09-17T07:35:05.041Z,10545
2017-09-17T07:35:35.034Z,10547
2017-09-17T07:36:05.573Z,10555
2017-09-17T07:37:05.128Z,10543
2017-09-17T07:37:35.161Z,10535
2017-09-17T07:38:05.190Z,10520
2017-09-17T07:38:35.242Z,10485
2017-09-17T07:39:05.309Z,10450
2017-09-17T07:39:35.327Z,10403
2017-09-17T07:40:05.391Z,10360
2017-09-17T07:40:35.395Z,10327
2017-09-17T07:41:05.564Z,10298
2017-09-17T07:41:35.443Z,10253
2017-09-17T07:42:05.465Z,10217
2017-09-17T07:42:35.522Z,10202
2017-09-17T07:43:05.584Z,10172
2017-09-17T07:43:35.551Z,10155
2017-09-17T07:44:05.596Z,10133
2017-09-17T07:44:35.687Z,10120
2017-09-17T07:45:05.710Z,10115
2017-09-17T07:45:35.658Z,10118
2017-09-17T07:46:35.810Z,10123
2017-09-17T07:47:05.771Z,10115
2017-09-17T07:47:35.772Z,10090
2017-09-17T07:48:05.825Z,10080
2017-09-17T07:48:35.851Z,10065
2017-09-17T07:49:05.870Z,10063
2017-09-17T07:50:05.943Z,10070
2017-09-17T07:50:35.965Z,10075
2017-09-17T07:51:36.078Z,10085
2017-09-17T07:52:06.054Z,10080
2017-09-17T07:52:36.084Z,10075
2017-09-17T07:53:06.105Z,10058
2017-09-17T07:53:36.150Z,10040
2017-09-17T07:54:06.200Z,10020
2017-09-17T07:54:36.216Z,9980
2017-09-17T07:55:06.253Z,9945
2017-09-17T07:55:36.275Z,9910
2017-09-17T07:56:06.321Z,9883
2017-09-17T07:56:36.461Z,9842
2017-09-17T07:57:06.356Z,9823
2017-09-17T07:57:36.412Z,9785
2017-09-17T07:58:06.458Z,9755
2017-09-17T07:58:36.507Z,9720
2017-09-17T07:59:06.533Z,9675
2017-09-17T07:59:36.508Z,9630
2017-09-17T08:00:06.744Z,9592
2017-09-17T08:00:36.606Z,9565
2017-09-17T08:01:06.689Z,9535
2017-09-17T08:01:36.779Z,9518
2017-09-17T08:02:06.697Z,9520
2017-09-17T08:02:36.777Z,9515
2017-09-17T08:03:06.756Z,9535
2017-09-17T08:03:36.831Z,9572
2017-09-17T08:04:06.842Z,9613
2017-09-17T08:04:36.870Z,9670
2017-09-17T08:05:06.889Z,9722
2017-09-17T08:05:36.908Z,9793
2017-09-17T08:06:06.966Z,9860
2017-09-17T08:06:37.056Z,9960
2017-09-17T08:07:07.016Z,10073
2017-09-17T08:07:37.066Z,10202
2017-09-17T08:08:07.197Z,10348
2017-09-17T08:08:37.147Z,10480
2017-09-17T08:09:07.138Z,10652
2017-09-17T08:09:37.201Z,10792
2017-09-17T08:10:07.171Z,10933
2017-09-17T08:10:37.258Z,11053
2017-09-17T08:11:07.329Z,11180
2017-09-17T08:11:37.380Z,11275
2017-09-17T08:12:07.390Z,11372
2017-09-17T08:12:37.358Z,11460
2017-09-17T08:13:07.426Z,11507
2017-09-17T08:13:37.434Z,11543
2017-09-17T08:14:07.507Z,11550
2017-09-17T08:14:37.491Z,11495
2017-09-17T08:15:07.599Z,11445
2017-09-17T08:15:37.579Z,11348
2017-09-17T08:16:07.630Z,11233
2017-09-17T08:16:37.686Z,11128
2017-09-17T08:17:07.634Z,11000
2017-09-17T08:17:37.702Z,10890
2017-09-17T08:18:07.723Z,10772
2017-09-17T08:18:37.747Z,10665
2017-09-17T08:19:07.759Z,10583
2017-09-17T08:19:37.814Z,10538
2017-09-17T08:20:07.854Z,10472
2017-09-17T08:20:37.881Z,10447
2017-09-17T08:21:37.985Z,10460
2017-09-17T08:22:07.944Z,10463
2017-09-17T08:22:38.044Z,10490
2017-09-17T08:23:08.081Z,10515
2017-09-17T08:23:38.044Z,10550
2017-09-17T08:24:08.083Z,10592
2017-09-17T08:24:38.112Z,10660
2017-09-17T08:25:08.192Z,10723
2017-09-17T08:25:38.217Z,10813
2017-09-17T08:26:08.224Z,10892
2017-09-17T08:26:38.317Z,10980
2017-09-17T08:27:08.326Z,11087
2017-09-17T08:27:38.381Z,11173
2017-09-17T08:28:08.391Z,11263
2017-09-17T08:28:38.433Z,11330
2017-09-17T08:29:08.398Z,11363
2017-09-17T08:29:38.480Z,11377
2017-09-17T08:30:08.638Z,11375
2017-09-17T08:30:38.550Z,11357
2017-09-17T08:31:08.562Z,11338
2017-09-17T08:31:38.811Z,11310
2017-09-17T08:32:08.647Z,11278
2017-09-17T08:32:38.677Z,11230
2017-09-17T08:33:08.706Z,11192
2017-09-17T08:33:38.749Z,11168
2017-09-17T08:34:08.734Z,11162
2017-09-17T08:34:38.749Z,11175
2017-09-17T08:35:08.866Z,11210
2017-09-17T08:35:39.092Z,11257
2017-09-17T08:36:08.829Z,11310
2017-09-17T08:36:38.915Z,11380
2017-09-17T08:37:08.967Z,11430
2017-09-17T08:37:38.924Z,11468
2017-09-17T08:38:08.956Z,11640
2017-09-17T08:38:38.984Z,12480
2017-09-17T08:39:09.007Z,11825
2017-09-17T08:39:39.056Z,11535
2017-09-17T08:40:09.071Z,11327
2017-09-17T08:40:39.107Z,11310
2017-09-17T08:41:09.139Z,11408
2017-09-17T08:41:39.335Z,11545
2017-09-17T08:42:09.203Z,10997
2017-09-17T08:42:39.288Z,10738
2017-09-17T08:43:09.323Z,10603
2017-09-17T08:43:39.346Z,10538
2017-09-17T08:44:09.340Z,10535
2017-09-17T08:44:39.380Z,10622
2017-09-17T08:45:09.591Z,10565
2017-09-17T08:45:39.511Z,10585
2017-09-17T08:46:09.524Z,10635
2017-09-17T08:46:39.617Z,10660
2017-09-17T08:47:09.860Z,10697
2017-09-17T08:47:39.640Z,10770
2017-09-17T08:48:09.681Z,10847
2017-09-17T08:48:39.670Z,10935
2017-09-17T08:49:09.714Z,11048
2017-09-17T08:49:39.722Z,11197
2017-09-17T08:50:09.771Z,11348
2017-09-17T08:50:39.791Z,11402
2017-09-17T08:51:09.897Z,11458
2017-09-17T08:51:39.932Z,11505
2017-09-17T08:52:09.923Z,11555
2017-09-17T08:52:39.943Z,11677
2017-09-17T08:53:09.987Z,11650
2017-09-17T08:53:40.037Z,11537
2017-09-17T08:54:10.026Z,11485
2017-09-17T08:54:40.072Z,11452
2017-09-17T08:55:10.104Z,11428
2017-09-17T08:55:40.142Z,11415
2017-09-17T08:56:10.184Z,11413
2017-09-17T08:56:40.255Z,11417
2017-09-17T08:57:10.238Z,11408
2017-09-17T08:57:40.271Z,11390
2017-09-17T08:58:10.316Z,11368
2017-09-17T08:58:40.352Z,11338
2017-09-17T08:59:10.373Z,11303
2017-09-17T08:59:40.352Z,11272
2017-09-17T09:00:10.434Z,11342
2017-09-17T09:00:40.421Z,11360
2017-09-17T09:01:10.453Z,11240
2017-09-17T09:01:40.617Z,11155
2017-09-17T09:02:10.575Z,11072
2017-09-17T09:02:40.546Z,10995
2017-09-17T09:03:10.601Z,10922
2017-09-17T09:03:40.687Z,10828
2017-09-17T09:04:10.702Z,10727
2017-09-17T09:04:40.689Z,10635
2017-09-17T09:05:10.704Z,10520
2017-09-17T09:05:40.795Z,10420
2017-09-17T09:06:10.774Z,10350
2017-09-17T09:06:40.863Z,10290
2017-09-17T09:07:10.853Z,10232
2017-09-17T09:07:40.857Z,10175
2017-09-17T09:08:10.900Z,10112
2017-09-17T09:08:40.955Z,10048
2017-09-17T09:09:10.943Z,9967
2017-09-17T09:09:41.002Z,9872
2017-09-17T09:10:11.019Z,9772
2017-09-17T09:10:41.050Z,9675
2017-09-17T09:11:11.086Z,9592
2017-09-17T09:11:41.210Z,9532
2017-09-17T09:12:11.178Z,9485
2017-09-17T09:12:41.174Z,9458
2017-09-17T09:13:41.253Z,9470
2017-09-17T09:14:11.299Z,9490
2017-09-17T09:14:41.346Z,9515
2017-09-17T09:15:11.399Z,9538
2017-09-17T09:15:41.426Z,9555
2017-09-17T09:16:11.415Z,9575
2017-09-17T09:16:41.604Z,9605
2017-09-17T09:17:11.491Z,9658
2017-09-17T09:17:41.497Z,9718
2017-09-17T09:18:11.599Z,9788
2017-09-17T09:18:41.585Z,9868
2017-09-17T09:19:11.667Z,9945
2017-09-17T09:19:41.694Z,10030
2017-09-17T09:20:11.732Z,10105
2017-09-17T09:20:41.706Z,10190
2017-09-17T09:21:11.725Z,10282
2017-09-17T09:21:41.858Z,10387
2017-09-17T09:22:11.807Z,10517
2017-09-17T09:22:41.832Z,10675
2017-09-17T09:23:11.864Z,10813
2017-09-17T09:23:41.972Z,10948
2017-09-17T09:24:11.910Z,11105
2017-09-17T09:24:41.944Z,11267
2017-09-17T09:25:11.991Z,11415
2017-09-17T09:25:42.006Z,11570
2017-09-17T09:26:12.044Z,11698
2017-09-17T09:26:42.244Z,11863
2017-09-17T09:27:12.187Z,12088
2017-09-17T09:27:42.223Z,12275
2017-09-17T09:28:12.246Z,12473
2017-09-17T09:28:42.278Z,12685
2017-09-17T09:29:12.336Z,12667
2017-09-17T09:29:42.374Z,12718
2017-09-17T09:30:12.441Z,12887
2017-09-17T09:30:42.456Z,13087
2017-09-17T09:31:12.504Z,13247
2017-09-17T09:31:42.730Z,13290
2017-09-17T09:32:12.541Z,13205
2017-09-17T09:32:42.575Z,13258
2017-09-17T09:33:12.618Z,13220
2017-09-17T09:33:42.640Z,13228
2017-09-17T09:34:12.647Z,13390
2017-09-17T09:34:42.685Z,13605
2017-09-17T09:35:12.692Z,13777
2017-09-17T09:35:42.745Z,13982
2017-09-17T09:36:12.762Z,14150
2017-09-17T09:36:42.933Z,14308
2017-09-17T09:37:12.815Z,14393
2017-09-17T09:37:42.879Z,14507
2017-09-17T09:38:12.901Z,14453
2017-09-17T09:38:42.900Z,14900
2017-09-17T09:39:12.970Z,14893
2017-09-17T09:39:42.993Z,14875
2017-09-17T09:40:13.048Z,15038
2017-09-17T09:40:43.053Z,14725
2017-09-17T09:41:13.099Z,14657
2017-09-17T09:41:43.211Z,15165
2017-09-17T09:42:13.164Z,14818
2017-09-17T09:42:43.169Z,14525
2017-09-17T09:43:13.250Z,14320
2017-09-17T09:43:43.258Z,14805
2017-09-17T09:44:13.314Z,15420
2017-09-17T09:44:43.327Z,14072
2017-09-17T09:45:13.378Z,13970
2017-09-17T09:45:43.385Z,14012
2017-09-17T09:46:13.372Z,14190
2017-09-17T09:46:43.605Z,15675
2017-09-17T09:47:13.509Z,16057
2017-09-17T09:47:43.484Z,17005
2017-09-17T09:48:13.577Z,17105
2017-09-17T09:48:43.581Z,17620
2017-09-17T09:49:13.569Z,18080
2017-09-17T09:49:43.675Z,21875
2017-09-17T09:50:13.623Z,23128
2017-09-17T09:50:43.660Z,24335
2017-09-17T09:51:13.708Z,22740
2017-09-17T09:51:43.797Z,23728
2017-09-17T09:52:13.794Z,23563
2017-09-17T09:52:43.805Z,27355
2017-09-17T09:53:13.836Z,26012
2017-09-17T09:53:43.855Z,26257
2017-09-17T09:54:13.897Z,25390
2017-09-17T09:54:43.916Z,20612
2017-09-17T09:55:13.939Z,20752
2017-09-17T09:55:43.992Z,20192
2017-09-17T09:56:14.040Z,20350
2017-09-17T09:56:44.099Z,28318
2017-09-17T09:57:14.078Z,32057
2017-09-17T09:57:44.119Z,33620
2017-09-17T09:58:14.129Z,33782
2017-09-17T09:58:44.167Z,34060
2017-09-17T09:59:14.241Z,34065
2017-09-17T09:59:44.280Z,34982
2017-09-17T10:00:14.351Z,34885
2017-09-17T10:00:44.292Z,35417
2017-09-17T10:01:14.400Z,35655
2017-09-17T10:01:44.448Z,35905
2017-09-17T10:02:14.388Z,35912
2017-09-17T10:02:44.483Z,36077
2017-09-17T10:03:14.449Z,36660
2017-09-17T10:03:44.538Z,37292
2017-09-17T10:04:14.542Z,37438
2017-09-17T10:04:44.553Z,37765
2017-09-17T10:05:14.603Z,38132
2017-09-17T10:05:44.640Z,37190
2017-09-17T10:06:14.644Z,38153
2017-09-17T10:06:44.704Z,33960
2017-09-17T10:07:14.702Z,35372
2017-09-17T10:07:44.726Z,38165
2017-09-17T10:08:14.816Z,38422
2017-09-17T10:08:44.789Z,35210
2017-09-17T10:09:14.808Z,33662
2017-09-17T10:09:44.853Z,35807
2017-09-17T10:10:14.942Z,34790
2017-09-17T10:10:44.929Z,37180
2017-09-17T10:11:14.932Z,35515
2017-09-17T10:11:45.039Z,37610
2017-09-17T10:12:14.998Z,37952
2017-09-17T10:12:45.120Z,38102
2017-09-17T10:13:15.095Z,38207
2017-09-17T10:13:45.129Z,38205
2017-09-17T10:14:15.153Z,38258
2017-09-17T10:14:45.213Z,38120
2017-09-17T10:15:15.293Z,38153
2017-09-17T10:15:45.306Z,38177
2017-09-17T10:16:15.290Z,38203
2017-09-17T10:16:45.395Z,38098
2017-09-17T10:17:15.421Z,38158
2017-09-17T10:17:45.452Z,38080
2017-09-17T10:18:15.482Z,38115
2017-09-17T10:18:45.488Z,38062
2017-09-17T10:19:15.506Z,37915
2017-09-17T10:19:45.513Z,37035
2017-09-17T10:20:15.592Z,36150
2017-09-17T10:20:45.630Z,36940
2017-09-17T10:21:15.666Z,38983
2017-09-17T10:21:45.789Z,39223
2017-09-17T10:22:15.745Z,36278
2017-09-17T10:22:45.745Z,25880
2017-09-17T10:23:15.791Z,18415
2017-09-17T10:23:45.811Z,17357
2017-09-17T10:24:15.859Z,17190
2017-09-17T10:24:45.831Z,17920
2017-09-17T10:25:15.910Z,16395
2017-09-17T10:25:45.934Z,15830
2017-09-17T10:26:15.974Z,17362
2017-09-17T10:26:46.112Z,20055
2017-09-17T10:27:16.043Z,27835
2017-09-17T10:27:46.061Z,27707
2017-09-17T10:28:16.118Z,29480
2017-09-17T10:28:46.140Z,39645
2017-09-17T10:29:16.185Z,37565
2017-09-17T10:29:46.187Z,40485
2017-09-17T10:30:16.352Z,41552
2017-09-17T10:30:46.256Z,41375
2017-09-17T10:31:16.283Z,41050
2017-09-17T10:31:46.338Z,40830
2017-09-17T10:32:16.345Z,40815
2017-09-17T10:32:46.370Z,40762
2017-09-17T10:33:16.437Z,38720
2017-09-17T10:33:46.464Z,40380
2017-09-17T10:34:16.494Z,40480
2017-09-17T10:34:46.508Z,40380
2017-09-17T10:35:16.508Z,40537
2017-09-17T10:35:46.595Z,40340
2017-09-17T10:36:16.593Z,40303
2017-09-17T10:36:46.676Z,37815
2017-09-17T10:37:16.648Z,30038
2017-09-17T10:37:46.664Z,21892
2017-09-17T10:38:16.677Z,21163
2017-09-17T10:38:46.739Z,35855
2017-09-17T10:39:16.813Z,40828
2017-09-17T10:39:46.793Z,40277
2017-09-17T10:40:16.814Z,39985
2017-09-17T10:40:46.863Z,39857
2017-09-17T10:41:16.894Z,39705
2017-09-17T10:41:47.197Z,39592
2017-09-17T10:42:16.944Z,30165
2017-09-17T10:42:46.977Z,33973
2017-09-17T10:43:17.014Z,37640
2017-09-17T10:43:47.045Z,38675
2017-09-17T10:44:17.117Z,38215
2017-09-17T10:44:47.105Z,38145
2017-09-17T10:45:17.406Z,38057
2017-09-17T10:46:17.216Z,38035
2017-09-17T10:46:47.324Z,14102
2017-09-17T10:47:17.294Z,9997
2017-09-17T10:47:47.316Z,12840
2017-09-17T10:48:17.408Z,20918
2017-09-17T10:48:47.385Z,23640
2017-09-17T10:49:17.477Z,39415
2017-09-17T10:49:47.504Z,38488
2017-09-17T10:50:17.541Z,14837
2017-09-17T10:50:47.566Z,12287
2017-09-17T10:51:17.546Z,27008
2017-09-17T10:51:47.628Z,9735
2017-09-17T10:52:17.617Z,32495
2017-09-17T10:52:47.702Z,38288
2017-09-17T10:53:17.663Z,38077
2017-09-17T10:53:47.763Z,33193
2017-09-17T10:54:17.768Z,36343
2017-09-17T10:54:47.808Z,38735
2017-09-17T10:55:17.799Z,39218
2017-09-17T10:55:47.882Z,39433
2017-09-17T10:56:17.860Z,39262
2017-09-17T10:56:48.025Z,39443
2017-09-17T10:57:17.917Z,39692
2017-09-17T10:57:48.010Z,39943
2017-09-17T10:58:17.994Z,39815
2017-09-17T10:58:48.088Z,39720
2017-09-17T10:59:18.052Z,39613
2017-09-17T10:59:48.091Z,39760
2017-09-17T11:00:18.302Z,37170
2017-09-17T11:00:48.138Z,37037
2017-09-17T11:01:18.203Z,39430
2017-09-17T11:01:48.266Z,39620
2017-09-17T11:02:18.376Z,39970
2017-09-17T11:02:48.273Z,40240
2017-09-17T11:03:18.335Z,40337
2017-09-17T11:03:48.382Z,40442
2017-09-17T11:04:18.381Z,40630
2017-09-17T11:04:48.413Z,40960
2017-09-17T11:05:18.517Z,41087
2017-09-17T11:05:48.458Z,41207
2017-09-17T11:06:18.586Z,41398
2017-09-17T11:06:48.636Z,41573
2017-09-17T11:07:18.619Z,41730
2017-09-17T11:07:48.642Z,41753
2017-09-17T11:08:18.653Z,41485
2017-09-17T11:08:48.726Z,41248
2017-09-17T11:09:18.771Z,40910
2017-09-17T11:09:48.788Z,40637
2017-09-17T11:10:18.808Z,40127
2017-09-17T11:10:48.849Z,39580
2017-09-17T11:11:18.839Z,39215
2017-09-17T11:11:49.148Z,38995
2017-09-17T11:12:18.934Z,38635
2017-09-17T11:12:48.962Z,38410
2017-09-17T11:13:18.968Z,38240
2017-09-17T11:13:49.008Z,38055
2017-09-17T11:14:19.072Z,37823
2017-09-17T11:14:49.090Z,37710
2017-09-17T11:15:19.173Z,37635
2017-09-17T11:15:49.135Z,37705
2017-09-17T11:16:19.207Z,37813
2017-09-17T11:16:49.298Z,37820
2017-09-17T11:17:19.304Z,37837
2017-09-17T11:17:49.292Z,38005
2017-09-17T11:18:19.357Z,38077
2017-09-17T11:18:49.375Z,38128